sensor_id;sensor_type;location;lat;lon;timestamp;pressure;altitude;pressure_sealevel;temperature;humidity
33153;BME280;19509;43.862;26.176;2023-06-14T00:01:44;100485.03;;;16.59;76.13
33153;BME280;19509;43.862;26.176;2023-06-14T00:04:14;100481.50;;;16.58;76.13
33153;BME280;19509;43.862;26.176;2023-06-14T00:06:42;100477.88;;;16.52;76.24
33153;BME280;19509;43.862;26.176;2023-06-14T00:09:10;100479.97;;;16.45;76.45
33153;BME280;19509;43.862;26.176;2023-06-14T00:11:38;100481.09;;;16.49;76.47
33153;BME280;19509;43.862;26.176;2023-06-14T00:14:04;100478.00;;;16.63;76.04
33153;BME280;19509;43.862;26.176;2023-06-14T00:16:30;100480.72;;;16.63;76.11
33153;BME280;19509;43.862;26.176;2023-06-14T00:18:55;100483.56;;;16.51;76.58
33153;BME280;19509;43.862;26.176;2023-06-14T00:21:21;100484.44;;;16.35;77.08
33153;BME280;19509;43.862;26.176;2023-06-14T00:23:47;100478.44;;;16.32;77.20
33153;BME280;19509;43.862;26.176;2023-06-14T00:26:12;100483.03;;;16.32;77.34
33153;BME280;19509;43.862;26.176;2023-06-14T00:28:38;100480.00;;;16.28;77.83
33153;BME280;19509;43.862;26.176;2023-06-14T00:31:03;100473.91;;;16.38;78.30
33153;BME280;19509;43.862;26.176;2023-06-14T00:33:29;100477.66;;;16.15;78.56
33153;BME280;19509;43.862;26.176;2023-06-14T00:35:55;100469.16;;;15.73;80.29
33153;BME280;19509;43.862;26.176;2023-06-14T00:38:20;100470.28;;;15.60;81.03
33153;BME280;19509;43.862;26.176;2023-06-14T00:40:46;100471.06;;;15.44;81.61
33153;BME280;19509;43.862;26.176;2023-06-14T00:43:12;100463.75;;;15.27;82.57
33153;BME280;19509;43.862;26.176;2023-06-14T00:45:37;100462.78;;;15.33;82.27
33153;BME280;19509;43.862;26.176;2023-06-14T00:48:04;100456.59;;;15.38;81.96
33153;BME280;19509;43.862;26.176;2023-06-14T00:50:32;100460.66;;;15.35;82.13
33153;BME280;19509;43.862;26.176;2023-06-14T00:53:02;100458.47;;;15.21;82.64
33153;BME280;19509;43.862;26.176;2023-06-14T00:55:28;100463.34;;;15.19;82.96
33153;BME280;19509;43.862;26.176;2023-06-14T00:57:55;100455.91;;;15.14;82.96
33153;BME280;19509;43.862;26.176;2023-06-14T01:00:21;100482.44;;;15.12;82.67
33153;BME280;19509;43.862;26.176;2023-06-14T01:02:46;100460.69;;;15.24;82.47
33153;BME280;19509;43.862;26.176;2023-06-14T01:05:13;100457.25;;;15.11;83.11
33153;BME280;19509;43.862;26.176;2023-06-14T01:13:37;100452.03;;;15.10;83.23
33153;BME280;19509;43.862;26.176;2023-06-14T01:16:05;100442.63;;;15.12;82.73
33153;BME280;19509;43.862;26.176;2023-06-14T01:18:31;100445.44;;;15.34;82.00
33153;BME280;19509;43.862;26.176;2023-06-14T01:20:57;100445.69;;;15.33;81.84
33153;BME280;19509;43.862;26.176;2023-06-14T01:23:23;100449.84;;;15.24;82.24
33153;BME280;19509;43.862;26.176;2023-06-14T01:25:49;100443.47;;;15.30;82.41
33153;BME280;19509;43.862;26.176;2023-06-14T01:28:19;100450.19;;;15.27;82.66
33153;BME280;19509;43.862;26.176;2023-06-14T01:30:48;100452.91;;;15.27;82.10
33153;BME280;19509;43.862;26.176;2023-06-14T01:33:15;100449.63;;;15.25;82.51
33153;BME280;19509;43.862;26.176;2023-06-14T01:35:43;100448.38;;;15.16;82.57
33153;BME280;19509;43.862;26.176;2023-06-14T01:38:09;100447.78;;;15.14;82.87
33153;BME280;19509;43.862;26.176;2023-06-14T01:40:35;100441.22;;;15.10;82.47
33153;BME280;19509;43.862;26.176;2023-06-14T01:43:02;100444.72;;;15.10;82.37
33153;BME280;19509;43.862;26.176;2023-06-14T01:45:29;100450.91;;;15.06;82.78
33153;BME280;19509;43.862;26.176;2023-06-14T01:47:55;100478.97;;;15.00;82.54
33153;BME280;19509;43.862;26.176;2023-06-14T01:50:21;100449.88;;;14.95;82.84
33153;BME280;19509;43.862;26.176;2023-06-14T01:52:46;100453.41;;;14.96;82.58
33153;BME280;19509;43.862;26.176;2023-06-14T01:55:12;100458.34;;;14.99;82.32
33153;BME280;19509;43.862;26.176;2023-06-14T01:57:37;100467.69;;;14.91;82.16
33153;BME280;19509;43.862;26.176;2023-06-14T02:00:06;100461.72;;;14.77;82.70
33153;BME280;19509;43.862;26.176;2023-06-14T02:02:38;100466.28;;;14.88;82.37
33153;BME280;19509;43.862;26.176;2023-06-14T02:05:04;100463.38;;;14.78;82.66
33153;BME280;19509;43.862;26.176;2023-06-14T02:07:29;100469.41;;;14.69;83.24
33153;BME280;19509;43.862;26.176;2023-06-14T02:09:55;100466.75;;;14.45;83.23
33153;BME280;19509;43.862;26.176;2023-06-14T02:12:20;100477.00;;;14.31;83.58
33153;BME280;19509;43.862;26.176;2023-06-14T02:14:46;100471.25;;;14.28;84.01
33153;BME280;19509;43.862;26.176;2023-06-14T02:17:12;100467.13;;;14.25;84.42
33153;BME280;19509;43.862;26.176;2023-06-14T02:19:37;100477.59;;;14.22;85.15
33153;BME280;19509;43.862;26.176;2023-06-14T02:22:04;100477.00;;;14.19;84.86
33153;BME280;19509;43.862;26.176;2023-06-14T02:24:29;100478.53;;;14.27;84.90
33153;BME280;19509;43.862;26.176;2023-06-14T02:26:55;100493.59;;;14.23;84.52
33153;BME280;19509;43.862;26.176;2023-06-14T02:29:20;100485.25;;;14.25;84.59
33153;BME280;19509;43.862;26.176;2023-06-14T02:31:46;100490.19;;;14.28;84.39
33153;BME280;19509;43.862;26.176;2023-06-14T02:34:14;100466.44;;;13.94;83.76
33153;BME280;19509;43.862;26.176;2023-06-14T02:36:42;100489.84;;;14.12;84.28
33153;BME280;19509;43.862;26.176;2023-06-14T02:39:08;100483.75;;;14.17;84.42
33153;BME280;19509;43.862;26.176;2023-06-14T02:41:36;100493.72;;;14.28;84.64
33153;BME280;19509;43.862;26.176;2023-06-14T02:44:02;100501.72;;;14.35;84.41
33153;BME280;19509;43.862;26.176;2023-06-14T02:46:28;100499.97;;;14.40;84.28
33153;BME280;19509;43.862;26.176;2023-06-14T02:48:53;100501.59;;;14.53;83.92
33153;BME280;19509;43.862;26.176;2023-06-14T02:51:19;100508.78;;;14.48;83.76
33153;BME280;19509;43.862;26.176;2023-06-14T02:53:45;100506.66;;;14.38;84.10
33153;BME280;19509;43.862;26.176;2023-06-14T02:56:10;100520.88;;;14.45;83.96
33153;BME280;19509;43.862;26.176;2023-06-14T02:58:37;100514.53;;;14.39;83.80
33153;BME280;19509;43.862;26.176;2023-06-14T03:01:04;100521.72;;;14.34;84.04
33153;BME280;19509;43.862;26.176;2023-06-14T03:03:31;100516.41;;;14.39;84.36
33153;BME280;19509;43.862;26.176;2023-06-14T03:05:56;100519.47;;;14.42;83.24
33153;BME280;19509;43.862;26.176;2023-06-14T03:08:22;100521.50;;;14.59;82.55
33153;BME280;19509;43.862;26.176;2023-06-14T03:10:52;100522.66;;;14.63;81.96
33153;BME280;19509;43.862;26.176;2023-06-14T03:13:18;100525.50;;;14.56;82.61
33153;BME280;19509;43.862;26.176;2023-06-14T03:15:48;100530.31;;;14.42;82.85
33153;BME280;19509;43.862;26.176;2023-06-14T03:18:18;100526.06;;;14.47;83.09
33153;BME280;19509;43.862;26.176;2023-06-14T03:20:44;100514.31;;;14.41;82.34
33153;BME280;19509;43.862;26.176;2023-06-14T03:23:11;100521.50;;;14.59;82.65
33153;BME280;19509;43.862;26.176;2023-06-14T03:25:37;100511.72;;;14.58;82.58
33153;BME280;19509;43.862;26.176;2023-06-14T03:28:04;100529.78;;;14.81;81.98
33153;BME280;19509;43.862;26.176;2023-06-14T03:30:31;100528.00;;;14.86;81.83
33153;BME280;19509;43.862;26.176;2023-06-14T03:32:57;100531.47;;;15.10;81.03
33153;BME280;19509;43.862;26.176;2023-06-14T03:35:23;100526.97;;;15.16;80.65
33153;BME280;19509;43.862;26.176;2023-06-14T03:37:49;100525.94;;;15.34;79.53
33153;BME280;19509;43.862;26.176;2023-06-14T03:40:17;100537.47;;;15.41;79.82
33153;BME280;19509;43.862;26.176;2023-06-14T03:42:42;100544.56;;;15.59;78.90
33153;BME280;19509;43.862;26.176;2023-06-14T03:45:08;100542.91;;;15.70;78.36
33153;BME280;19509;43.862;26.176;2023-06-14T03:47:34;100549.00;;;15.65;77.99
33153;BME280;19509;43.862;26.176;2023-06-14T03:50:00;100551.28;;;15.85;77.95
33153;BME280;19509;43.862;26.176;2023-06-14T03:52:27;100553.94;;;15.80;77.74
33153;BME280;19509;43.862;26.176;2023-06-14T03:54:52;100541.00;;;15.87;77.67
33153;BME280;19509;43.862;26.176;2023-06-14T03:57:19;100557.84;;;16.06;77.47
33153;BME280;19509;43.862;26.176;2023-06-14T03:59:45;100551.13;;;16.08;77.17
33153;BME280;19509;43.862;26.176;2023-06-14T04:02:10;100549.06;;;16.16;76.77
33153;BME280;19509;43.862;26.176;2023-06-14T04:04:37;100555.19;;;16.45;76.54
33153;BME280;19509;43.862;26.176;2023-06-14T04:07:03;100553.59;;;16.66;75.85
33153;BME280;19509;43.862;26.176;2023-06-14T04:09:29;100558.56;;;16.74;75.27
33153;BME280;19509;43.862;26.176;2023-06-14T04:11:55;100545.25;;;16.94;74.56
33153;BME280;19509;43.862;26.176;2023-06-14T04:14:21;100545.56;;;17.20;73.31
33153;BME280;19509;43.862;26.176;2023-06-14T04:16:47;100561.50;;;17.33;73.68
33153;BME280;19509;43.862;26.176;2023-06-14T04:19:14;100549.53;;;17.34;73.88
33153;BME280;19509;43.862;26.176;2023-06-14T04:21:39;100564.75;;;17.62;73.20
33153;BME280;19509;43.862;26.176;2023-06-14T04:24:05;100572.72;;;17.69;73.06
33153;BME280;19509;43.862;26.176;2023-06-14T04:26:32;100563.66;;;17.58;72.95
33153;BME280;19509;43.862;26.176;2023-06-14T04:28:59;100567.69;;;17.56;73.35
33153;BME280;19509;43.862;26.176;2023-06-14T04:31:28;100572.41;;;17.65;73.17
33153;BME280;19509;43.862;26.176;2023-06-14T04:33:55;100567.91;;;17.76;73.23
33153;BME280;19509;43.862;26.176;2023-06-14T04:36:21;100565.84;;;17.83;72.75
33153;BME280;19509;43.862;26.176;2023-06-14T04:38:46;100568.88;;;17.92;71.88
33153;BME280;19509;43.862;26.176;2023-06-14T04:41:12;100570.56;;;17.98;72.40
33153;BME280;19509;43.862;26.176;2023-06-14T04:43:38;100576.72;;;17.83;72.39
33153;BME280;19509;43.862;26.176;2023-06-14T04:46:06;100574.53;;;17.85;73.13
33153;BME280;19509;43.862;26.176;2023-06-14T04:48:40;100575.97;;;17.93;73.13
33153;BME280;19509;43.862;26.176;2023-06-14T04:51:08;100576.41;;;18.12;71.86
33153;BME280;19509;43.862;26.176;2023-06-14T04:53:34;100530.56;;;17.71;72.58
33153;BME280;19509;43.862;26.176;2023-06-14T04:56:00;100581.56;;;18.13;73.18
33153;BME280;19509;43.862;26.176;2023-06-14T04:58:29;100583.03;;;18.26;71.34
33153;BME280;19509;43.862;26.176;2023-06-14T05:00:55;100580.75;;;18.50;70.97
33153;BME280;19509;43.862;26.176;2023-06-14T05:03:22;100577.94;;;18.77;69.26
33153;BME280;19509;43.862;26.176;2023-06-14T05:05:49;100585.34;;;18.82;70.04
33153;BME280;19509;43.862;26.176;2023-06-14T05:08:16;100584.75;;;18.80;70.81
33153;BME280;19509;43.862;26.176;2023-06-14T05:10:42;100586.50;;;19.01;69.54
33153;BME280;19509;43.862;26.176;2023-06-14T05:13:07;100589.28;;;19.17;68.41
33153;BME280;19509;43.862;26.176;2023-06-14T05:15:33;100595.53;;;19.12;70.28
33153;BME280;19509;43.862;26.176;2023-06-14T05:17:59;100585.75;;;19.21;69.13
33153;BME280;19509;43.862;26.176;2023-06-14T05:20:25;100586.09;;;19.40;68.81
33153;BME280;19509;43.862;26.176;2023-06-14T05:22:54;100592.66;;;19.49;67.98
33153;BME280;19509;43.862;26.176;2023-06-14T05:25:20;100593.75;;;19.48;68.46
33153;BME280;19509;43.862;26.176;2023-06-14T05:27:46;100595.38;;;19.49;68.42
33153;BME280;19509;43.862;26.176;2023-06-14T05:30:13;100603.13;;;19.83;66.94
33153;BME280;19509;43.862;26.176;2023-06-14T05:32:38;100599.56;;;19.77;66.59
33153;BME280;19509;43.862;26.176;2023-06-14T05:35:04;100596.25;;;19.60;67.04
33153;BME280;19509;43.862;26.176;2023-06-14T05:37:31;100600.91;;;19.70;68.33
33153;BME280;19509;43.862;26.176;2023-06-14T05:39:57;100594.91;;;19.68;67.46
33153;BME280;19509;43.862;26.176;2023-06-14T05:42:22;100591.38;;;19.77;67.96
33153;BME280;19509;43.862;26.176;2023-06-14T05:44:48;100608.03;;;19.96;67.05
33153;BME280;19509;43.862;26.176;2023-06-14T05:47:13;100618.97;;;19.81;68.65
33153;BME280;19509;43.862;26.176;2023-06-14T05:49:39;100600.13;;;20.20;67.70
33153;BME280;19509;43.862;26.176;2023-06-14T05:52:05;100603.41;;;20.53;66.69
33153;BME280;19509;43.862;26.176;2023-06-14T05:54:31;100609.13;;;20.67;65.45
33153;BME280;19509;43.862;26.176;2023-06-14T05:56:57;100615.69;;;20.61;64.97
33153;BME280;19509;43.862;26.176;2023-06-14T05:59:27;100616.53;;;20.51;64.98
33153;BME280;19509;43.862;26.176;2023-06-14T06:01:52;100615.97;;;20.49;67.38
33153;BME280;19509;43.862;26.176;2023-06-14T06:04:18;100611.03;;;20.66;65.77
33153;BME280;19509;43.862;26.176;2023-06-14T06:06:44;100615.63;;;20.81;64.69
33153;BME280;19509;43.862;26.176;2023-06-14T06:09:10;100611.53;;;20.84;64.33
33153;BME280;19509;43.862;26.176;2023-06-14T06:11:35;100612.06;;;20.91;64.63
33153;BME280;19509;43.862;26.176;2023-06-14T06:14:01;100613.78;;;20.56;64.36
33153;BME280;19509;43.862;26.176;2023-06-14T06:16:27;100615.44;;;20.62;64.30
33153;BME280;19509;43.862;26.176;2023-06-14T06:18:52;100619.97;;;20.97;64.73
33153;BME280;19509;43.862;26.176;2023-06-14T06:21:18;100615.34;;;20.93;65.62
33153;BME280;19509;43.862;26.176;2023-06-14T06:23:43;100608.00;;;20.83;63.42
33153;BME280;19509;43.862;26.176;2023-06-14T06:26:09;100612.59;;;20.93;63.89
33153;BME280;19509;43.862;26.176;2023-06-14T06:28:34;100614.72;;;21.11;65.21
33153;BME280;19509;43.862;26.176;2023-06-14T06:31:01;100605.78;;;21.50;62.42
33153;BME280;19509;43.862;26.176;2023-06-14T06:33:28;100612.63;;;21.58;62.17
33153;BME280;19509;43.862;26.176;2023-06-14T06:35:53;100617.34;;;21.42;64.01
33153;BME280;19509;43.862;26.176;2023-06-14T06:38:19;100615.63;;;21.56;63.12
33153;BME280;19509;43.862;26.176;2023-06-14T06:40:45;100610.44;;;21.55;62.54
33153;BME280;19509;43.862;26.176;2023-06-14T06:43:10;100619.25;;;21.91;61.03
33153;BME280;19509;43.862;26.176;2023-06-14T06:45:39;100613.56;;;22.22;63.55
33153;BME280;19509;43.862;26.176;2023-06-14T06:48:05;100608.63;;;21.79;60.99
33153;BME280;19509;43.862;26.176;2023-06-14T06:50:31;100607.88;;;21.68;63.06
33153;BME280;19509;43.862;26.176;2023-06-14T06:52:56;100612.91;;;21.95;61.99
33153;BME280;19509;43.862;26.176;2023-06-14T06:55:22;100601.22;;;21.80;60.10
33153;BME280;19509;43.862;26.176;2023-06-14T06:57:48;100611.94;;;21.76;61.95
33153;BME280;19509;43.862;26.176;2023-06-14T07:00:15;100606.13;;;22.22;61.06
33153;BME280;19509;43.862;26.176;2023-06-14T07:02:41;100615.09;;;22.33;60.57
33153;BME280;19509;43.862;26.176;2023-06-14T07:05:07;100612.50;;;22.47;60.54
33153;BME280;19509;43.862;26.176;2023-06-14T07:07:34;100614.28;;;22.32;60.27
33153;BME280;19509;43.862;26.176;2023-06-14T07:09:59;100603.31;;;22.32;62.17
33153;BME280;19509;43.862;26.176;2023-06-14T07:12:29;100605.00;;;22.28;59.73
33153;BME280;19509;43.862;26.176;2023-06-14T07:17:21;100607.91;;;22.03;61.17
33153;BME280;19509;43.862;26.176;2023-06-14T07:19:47;100622.47;;;21.98;61.08
33153;BME280;19509;43.862;26.176;2023-06-14T07:22:12;100617.25;;;21.96;60.43
33153;BME280;19509;43.862;26.176;2023-06-14T07:24:38;100615.25;;;22.07;61.08
33153;BME280;19509;43.862;26.176;2023-06-14T07:27:05;100608.13;;;22.46;60.96
33153;BME280;19509;43.862;26.176;2023-06-14T07:29:31;100598.59;;;22.62;60.52
33153;BME280;19509;43.862;26.176;2023-06-14T07:31:57;100605.16;;;22.66;59.00
33153;BME280;19509;43.862;26.176;2023-06-14T07:34:22;100606.44;;;22.74;59.71
33153;BME280;19509;43.862;26.176;2023-06-14T07:36:48;100603.25;;;22.90;58.08
33153;BME280;19509;43.862;26.176;2023-06-14T07:39:13;100600.44;;;22.72;57.84
33153;BME280;19509;43.862;26.176;2023-06-14T07:41:39;100608.59;;;22.53;58.46
33153;BME280;19509;43.862;26.176;2023-06-14T07:44:05;100594.47;;;22.88;60.11
33153;BME280;19509;43.862;26.176;2023-06-14T07:46:30;100596.94;;;22.90;58.68
33153;BME280;19509;43.862;26.176;2023-06-14T07:48:56;100596.84;;;23.00;56.10
33153;BME280;19509;43.862;26.176;2023-06-14T07:51:22;100590.66;;;22.89;56.67
33153;BME280;19509;43.862;26.176;2023-06-14T07:53:48;100594.56;;;23.07;57.34
33153;BME280;19509;43.862;26.176;2023-06-14T07:56:14;100594.66;;;23.21;56.47
33153;BME280;19509;43.862;26.176;2023-06-14T07:58:40;100625.28;;;23.52;56.65
33153;BME280;19509;43.862;26.176;2023-06-14T08:01:06;100591.41;;;23.57;55.82
33153;BME280;19509;43.862;26.176;2023-06-14T08:03:33;100593.41;;;23.32;56.90
33153;BME280;19509;43.862;26.176;2023-06-14T08:05:59;100604.84;;;23.40;56.46
33153;BME280;19509;43.862;26.176;2023-06-14T08:08:26;100599.44;;;23.53;53.96
33153;BME280;19509;43.862;26.176;2023-06-14T08:10:51;100602.41;;;23.38;56.63
33153;BME280;19509;43.862;26.176;2023-06-14T08:13:17;100604.47;;;23.46;53.06
33153;BME280;19509;43.862;26.176;2023-06-14T08:15:43;100603.91;;;23.87;53.83
33153;BME280;19509;43.862;26.176;2023-06-14T08:18:09;100598.09;;;24.21;53.11
33153;BME280;19509;43.862;26.176;2023-06-14T08:20:34;100613.53;;;24.36;52.86
33153;BME280;19509;43.862;26.176;2023-06-14T08:23:02;100603.03;;;24.38;50.87
33153;BME280;19509;43.862;26.176;2023-06-14T08:25:27;100602.41;;;24.46;51.17
33153;BME280;19509;43.862;26.176;2023-06-14T08:27:53;100601.81;;;24.63;52.60
33153;BME280;19509;43.862;26.176;2023-06-14T08:30:18;100596.22;;;24.36;51.19
33153;BME280;19509;43.862;26.176;2023-06-14T08:32:44;100588.69;;;23.95;52.15
33153;BME280;19509;43.862;26.176;2023-06-14T08:35:10;100601.84;;;23.79;50.96
33153;BME280;19509;43.862;26.176;2023-06-14T08:37:41;100585.72;;;23.72;52.81
33153;BME280;19509;43.862;26.176;2023-06-14T08:40:22;100580.22;;;23.72;53.21
33153;BME280;19509;43.862;26.176;2023-06-14T08:42:51;100596.22;;;24.36;54.86
33153;BME280;19509;43.862;26.176;2023-06-14T08:45:19;100585.25;;;23.84;49.63
33153;BME280;19509;43.862;26.176;2023-06-14T08:47:45;100583.63;;;24.02;50.07
33153;BME280;19509;43.862;26.176;2023-06-14T08:50:20;100584.53;;;24.11;53.00
33153;BME280;19509;43.862;26.176;2023-06-14T08:52:51;100582.97;;;24.38;49.89
33153;BME280;19509;43.862;26.176;2023-06-14T08:55:18;100583.34;;;24.50;50.46
33153;BME280;19509;43.862;26.176;2023-06-14T08:57:46;100581.50;;;24.59;50.59
33153;BME280;19509;43.862;26.176;2023-06-14T09:00:12;100585.91;;;24.74;48.96
33153;BME280;19509;43.862;26.176;2023-06-14T09:02:39;100586.63;;;24.93;50.29
33153;BME280;19509;43.862;26.176;2023-06-14T09:05:09;100577.53;;;25.07;48.37
33153;BME280;19509;43.862;26.176;2023-06-14T09:07:36;100586.44;;;24.90;49.68
33153;BME280;19509;43.862;26.176;2023-06-14T09:10:14;100585.09;;;25.15;47.79
33153;BME280;19509;43.862;26.176;2023-06-14T09:12:40;100584.69;;;25.08;50.13
33153;BME280;19509;43.862;26.176;2023-06-14T09:15:06;100580.78;;;25.36;46.92
33153;BME280;19509;43.862;26.176;2023-06-14T09:17:35;100576.88;;;25.51;48.99
33153;BME280;19509;43.862;26.176;2023-06-14T09:20:02;100585.69;;;24.98;48.17
33153;BME280;19509;43.862;26.176;2023-06-14T09:22:31;100585.59;;;24.89;47.33
33153;BME280;19509;43.862;26.176;2023-06-14T09:24:57;100585.72;;;24.84;48.68
33153;BME280;19509;43.862;26.176;2023-06-14T09:27:25;100586.44;;;24.90;47.24
33153;BME280;19509;43.862;26.176;2023-06-14T09:29:52;100583.44;;;25.41;47.98
33153;BME280;19509;43.862;26.176;2023-06-14T09:32:18;100584.19;;;25.56;47.27
33153;BME280;19509;43.862;26.176;2023-06-14T09:34:45;100583.44;;;26.00;44.01
33153;BME280;19509;43.862;26.176;2023-06-14T09:37:10;100581.56;;;26.09;48.39
33153;BME280;19509;43.862;26.176;2023-06-14T09:39:49;100575.34;;;26.26;45.02
33153;BME280;19509;43.862;26.176;2023-06-14T09:42:18;100584.91;;;26.51;44.58
33153;BME280;19509;43.862;26.176;2023-06-14T09:44:47;100594.56;;;26.40;48.72
33153;BME280;19509;43.862;26.176;2023-06-14T09:47:15;100576.97;;;26.58;45.38
33153;BME280;19509;43.862;26.176;2023-06-14T09:49:40;100573.31;;;26.18;45.25
33153;BME280;19509;43.862;26.176;2023-06-14T09:52:06;100581.50;;;26.01;47.88
33153;BME280;19509;43.862;26.176;2023-06-14T09:54:40;100581.56;;;25.87;46.41
33153;BME280;19509;43.862;26.176;2023-06-14T09:57:10;100586.91;;;25.69;48.44
33153;BME280;19509;43.862;26.176;2023-06-14T09:59:41;100580.31;;;25.93;50.00
33153;BME280;19509;43.862;26.176;2023-06-14T10:02:12;100579.34;;;26.20;45.75
33153;BME280;19509;43.862;26.176;2023-06-14T10:04:46;100580.94;;;26.12;47.44
33153;BME280;19509;43.862;26.176;2023-06-14T10:07:18;100574.19;;;26.27;45.15
33153;BME280;19509;43.862;26.176;2023-06-14T10:09:45;100574.91;;;26.41;47.22
33153;BME280;19509;43.862;26.176;2023-06-14T10:12:16;100572.91;;;26.56;45.61
33153;BME280;19509;43.862;26.176;2023-06-14T10:14:50;100570.72;;;26.44;45.86
33153;BME280;19509;43.862;26.176;2023-06-14T10:17:26;100569.50;;;26.05;46.12
33153;BME280;19509;43.862;26.176;2023-06-14T10:20:26;100573.75;;;25.66;46.28
33153;BME280;19509;43.862;26.176;2023-06-14T10:22:58;100555.22;;;25.81;46.71
33153;BME280;19509;43.862;26.176;2023-06-14T10:25:31;100566.38;;;26.21;44.92
33153;BME280;19509;43.862;26.176;2023-06-14T10:28:18;100567.59;;;26.06;44.53
33153;BME280;19509;43.862;26.176;2023-06-14T10:41:37;100564.88;;;26.77;43.18
33153;BME280;19509;43.862;26.176;2023-06-14T10:46:58;100566.34;;;26.43;43.67
33153;BME280;19509;43.862;26.176;2023-06-14T10:49:44;100562.47;;;26.22;44.08
33153;BME280;19509;43.862;26.176;2023-06-14T10:52:33;100554.28;;;26.39;43.84
33153;BME280;19509;43.862;26.176;2023-06-14T10:55:05;100561.91;;;26.73;44.00
33153;BME280;19509;43.862;26.176;2023-06-14T10:57:50;100561.00;;;26.86;42.76
33153;BME280;19509;43.862;26.176;2023-06-14T11:00:19;100570.19;;;26.73;43.31
33153;BME280;19509;43.862;26.176;2023-06-14T11:05:28;100567.53;;;26.91;44.20
33153;BME280;19509;43.862;26.176;2023-06-14T11:10:38;100548.13;;;27.48;41.78
33153;BME280;19509;43.862;26.176;2023-06-14T11:13:05;100551.72;;;27.66;39.57
33153;BME280;19509;43.862;26.176;2023-06-14T11:15:32;100559.75;;;27.10;41.75
33153;BME280;19509;43.862;26.176;2023-06-14T11:18:00;100549.91;;;27.26;40.38
33153;BME280;19509;43.862;26.176;2023-06-14T11:20:27;100551.53;;;27.71;41.10
33153;BME280;19509;43.862;26.176;2023-06-14T11:22:53;100551.22;;;27.64;38.73
33153;BME280;19509;43.862;26.176;2023-06-14T11:25:19;100549.91;;;27.52;38.55
33153;BME280;19509;43.862;26.176;2023-06-14T11:27:45;100542.63;;;28.38;38.79
33153;BME280;19509;43.862;26.176;2023-06-14T11:30:12;100536.34;;;28.67;38.02
33153;BME280;19509;43.862;26.176;2023-06-14T11:32:39;100541.34;;;28.44;37.35
33153;BME280;19509;43.862;26.176;2023-06-14T11:35:05;100544.03;;;27.97;39.33
33153;BME280;19509;43.862;26.176;2023-06-14T11:37:31;100548.88;;;28.09;39.72
33153;BME280;19509;43.862;26.176;2023-06-14T11:40:00;100553.63;;;27.48;39.51
33153;BME280;19509;43.862;26.176;2023-06-14T11:42:27;100543.22;;;27.27;41.48
33153;BME280;19509;43.862;26.176;2023-06-14T11:44:53;100538.50;;;27.19;42.84
33153;BME280;19509;43.862;26.176;2023-06-14T11:47:19;100539.22;;;26.85;42.95
33153;BME280;19509;43.862;26.176;2023-06-14T11:49:46;100540.97;;;27.29;42.18
33153;BME280;19509;43.862;26.176;2023-06-14T11:52:11;100536.25;;;27.65;40.69
33153;BME280;19509;43.862;26.176;2023-06-14T11:54:37;100533.97;;;27.58;40.51
33153;BME280;19509;43.862;26.176;2023-06-14T11:57:03;100530.91;;;27.77;44.49
33153;BME280;19509;43.862;26.176;2023-06-14T11:59:30;100533.31;;;27.61;42.38
33153;BME280;19509;43.862;26.176;2023-06-14T12:01:56;100530.06;;;27.16;40.93
33153;BME280;19509;43.862;26.176;2023-06-14T12:04:26;100537.81;;;26.48;42.79
33153;BME280;19509;43.862;26.176;2023-06-14T12:06:52;100527.78;;;27.26;43.54
33153;BME280;19509;43.862;26.176;2023-06-14T12:09:21;100519.50;;;27.78;40.80
33153;BME280;19509;43.862;26.176;2023-06-14T12:11:49;100527.31;;;27.59;41.00
33153;BME280;19509;43.862;26.176;2023-06-14T12:14:15;100528.25;;;27.11;42.15
33153;BME280;19509;43.862;26.176;2023-06-14T12:16:42;100524.78;;;26.88;43.07
33153;BME280;19509;43.862;26.176;2023-06-14T12:21:36;100521.78;;;26.58;42.59
33153;BME280;19509;43.862;26.176;2023-06-14T12:24:04;100513.44;;;26.18;43.76
33153;BME280;19509;43.862;26.176;2023-06-14T12:26:32;100515.00;;;26.33;43.32
33153;BME280;19509;43.862;26.176;2023-06-14T12:28:58;100518.16;;;26.18;45.55
33153;BME280;19509;43.862;26.176;2023-06-14T12:31:23;100512.16;;;26.47;45.90
33153;BME280;19509;43.862;26.176;2023-06-14T12:33:49;100511.09;;;26.34;44.23
33153;BME280;19509;43.862;26.176;2023-06-14T12:36:16;100497.84;;;26.45;46.34
33153;BME280;19509;43.862;26.176;2023-06-14T12:38:42;100506.53;;;26.70;44.87
33153;BME280;19509;43.862;26.176;2023-06-14T12:41:07;100509.97;;;26.67;45.52
33153;BME280;19509;43.862;26.176;2023-06-14T12:43:33;100500.69;;;26.62;45.79
33153;BME280;19509;43.862;26.176;2023-06-14T12:45:59;100500.84;;;26.57;46.42
33153;BME280;19509;43.862;26.176;2023-06-14T12:48:25;100511.59;;;26.76;47.52
33153;BME280;19509;43.862;26.176;2023-06-14T12:50:52;100500.06;;;26.74;42.49
33153;BME280;19509;43.862;26.176;2023-06-14T12:53:18;100493.75;;;26.82;42.92
33153;BME280;19509;43.862;26.176;2023-06-14T12:55:44;100494.78;;;26.47;45.66
33153;BME280;19509;43.862;26.176;2023-06-14T12:58:10;100490.25;;;26.51;44.37
33153;BME280;19509;43.862;26.176;2023-06-14T13:00:38;100484.63;;;26.73;46.06
33153;BME280;19509;43.862;26.176;2023-06-14T13:03:03;100483.78;;;26.55;46.47
33153;BME280;19509;43.862;26.176;2023-06-14T13:05:29;100482.06;;;26.37;44.99
33153;BME280;19509;43.862;26.176;2023-06-14T13:07:56;100483.69;;;26.38;45.46
33153;BME280;19509;43.862;26.176;2023-06-14T13:10:22;100488.34;;;26.60;44.94